Time;durP1;ratioP1;P1;durP2;ratioP2;P2;SDS_P1;SDS_P2;PMS_P1;PMS_P2;Temp;Humidity;BMP_temperature;BMP_pressure;BME280_temperature;BME280_humidity;BME280_pressure;Samples;Min_cycle;Max_cycle;Signal;HPM_P1;HPM_P2
2022/08/30 00:02:59;;;;;;;5.93;4.20;;;17.50;99.90;;;;;;5006075;28;20030;-75
2022/08/30 00:05:26;;;;;;;7.07;4.38;;;17.50;99.90;;;;;;5005105;28;20096;-74
2022/08/30 00:07:52;;;;;;;;;;;17.50;99.90;;;;;;5006352;28;20253;-74
2022/08/30 00:10:17;;;;;;;8.65;4.10;;;17.40;99.90;;;;;;5005876;28;19906;-75
2022/08/30 00:12:43;;;;;;;10.00;4.70;;;17.40;99.90;;;;;;5005876;28;20027;-75
2022/08/30 00:15:10;;;;;;;8.97;4.60;;;17.40;99.90;;;;;;5005810;28;20029;-74
2022/08/30 00:17:36;;;;;;;6.80;3.95;;;17.40;99.90;;;;;;5004776;28;20077;-75
2022/08/30 00:20:04;;;;;;;6.43;4.13;;;17.30;99.90;;;;;;5005943;28;20069;-74
2022/08/30 00:22:31;;;;;;;10.13;3.88;;;17.30;99.90;;;;;;4988865;28;20052;-75
2022/08/30 00:24:59;;;;;;;7.82;4.15;;;17.30;99.90;;;;;;5004255;28;20095;-75
2022/08/30 00:27:26;;;;;;;5.68;3.92;;;17.30;99.90;;;;;;5005787;28;20073;-75
2022/08/30 00:29:52;;;;;;;9.52;4.43;;;17.20;99.90;;;;;;5004657;28;20022;-75
2022/08/30 00:32:20;;;;;;;8.18;4.15;;;17.20;99.90;;;;;;5004677;28;20041;-75
2022/08/30 00:34:49;;;;;;;6.90;4.28;;;17.20;99.90;;;;;;5020591;28;20022;-74
2022/08/30 00:37:15;;;;;;;7.53;4.00;;;17.20;99.90;;;;;;5004415;28;20264;-75
2022/08/30 00:39:41;;;;;;;6.03;4.10;;;17.20;99.90;;;;;;4999150;28;20133;-75
2022/08/30 00:42:07;;;;;;;9.13;4.27;;;17.20;99.90;;;;;;4986131;28;20345;-75
2022/08/30 00:44:33;;;;;;;11.70;4.75;;;17.10;99.90;;;;;;4984174;28;20246;-75
2022/08/30 00:46:58;;;;;;;6.73;4.07;;;17.10;99.90;;;;;;4985940;28;20046;-75
2022/08/30 00:49:24;;;;;;;6.57;3.97;;;17.20;99.90;;;;;;4984761;28;20026;-75
2022/08/30 00:51:50;;;;;;;10.80;4.30;;;17.20;99.90;;;;;;4984913;28;20138;-75
2022/08/30 00:54:17;;;;;;;11.27;4.82;;;17.10;99.90;;;;;;4984345;28;20062;-75
2022/08/30 00:56:43;;;;;;;5.72;4.20;;;17.10;99.90;;;;;;4984713;28;20345;-75
2022/08/30 00:59:09;;;;;;;6.83;4.03;;;17.10;99.90;;;;;;4984638;28;20043;-75
2022/08/30 01:01:36;;;;;;;11.02;4.50;;;17.10;99.90;;;;;;4968624;28;20027;-75
2022/08/30 01:04:03;;;;;;;10.00;4.95;;;17.00;99.90;;;;;;4984515;28;20046;-74
2022/08/30 01:06:28;;;;;;;5.70;4.15;;;17.00;99.90;;;;;;4968603;28;20058;-75
2022/08/30 01:08:55;;;;;;;8.00;4.50;;;17.00;99.90;;;;;;4984710;28;20026;-75
2022/08/30 01:11:21;;;;;;;8.53;3.80;;;17.00;99.90;;;;;;5002217;28;20089;-76
2022/08/30 01:13:47;;;;;;;8.23;4.63;;;17.00;99.90;;;;;;4987415;28;20022;-75
2022/08/30 01:16:12;;;;;;;9.10;4.70;;;16.90;99.90;;;;;;5003846;28;20102;-75
2022/08/30 01:18:38;;;;;;;9.10;4.53;;;16.90;99.90;;;;;;5003727;28;20081;-75
2022/08/30 01:21:21;;;;;;;5.57;4.17;;;16.90;99.90;;;;;;5003811;28;20461;-75
2022/08/30 01:23:49;;;;;;;8.25;4.90;;;16.80;99.90;;;;;;5003441;28;20088;-75
2022/08/30 01:26:16;;;;;;;8.18;4.60;;;16.80;99.90;;;;;;5003213;28;20030;-76
2022/08/30 01:28:47;;;;;;;7.68;4.13;;;16.80;99.90;;;;;;5003465;28;20325;-75
2022/08/30 01:31:13;;;;;;;9.98;4.35;;;16.80;99.90;;;;;;5003551;28;20525;-75
2022/08/30 01:33:40;;;;;;;10.32;4.70;;;16.80;99.90;;;;;;5003278;28;20084;-75
2022/08/30 01:36:10;;;;;;;8.75;4.65;;;16.80;99.90;;;;;;5003472;28;20084;-75
2022/08/30 01:38:56;;;;;;;10.95;4.72;;;16.80;99.90;;;;;;5003298;28;20042;-72
2022/08/30 01:41:23;;;;;;;6.72;4.38;;;16.80;99.90;;;;;;5001832;28;20042;-72
2022/08/30 01:43:50;;;;;;;8.10;4.63;;;16.80;99.90;;;;;;5003106;28;20252;-72
2022/08/30 01:46:17;;;;;;;9.00;4.32;;;16.70;99.90;;;;;;5002635;28;20057;-72
2022/08/30 01:48:43;;;;;;;10.65;5.28;;;16.70;99.90;;;;;;5002982;28;20093;-72
2022/08/30 01:51:11;;;;;;;7.35;4.78;;;16.70;99.90;;;;;;5003114;28;20026;-72
2022/08/30 01:53:38;;;;;;;7.45;4.63;;;16.70;99.90;;;;;;5004019;28;20337;-72
2022/08/30 01:56:05;;;;;;;9.05;4.70;;;16.60;99.90;;;;;;4986462;28;20237;-73
2022/08/30 01:58:31;;;;;;;9.00;4.15;;;16.70;99.90;;;;;;5004094;28;20329;-72
2022/08/30 02:00:56;;;;;;;10.13;4.40;;;16.60;99.90;;;;;;5004106;28;20045;-72
2022/08/30 02:03:23;;;;;;;8.20;4.50;;;16.60;99.90;;;;;;5002618;28;20038;-72
2022/08/30 02:05:49;;;;;;;7.30;4.38;;;16.60;99.90;;;;;;5003902;28;20030;-72
2022/08/30 02:08:14;;;;;;;14.20;5.03;;;16.60;99.90;;;;;;5003802;28;20022;-72
2022/08/30 02:10:40;;;;;;;9.57;4.67;;;16.60;99.90;;;;;;5003490;28;20042;-72
2022/08/30 02:13:06;;;;;;;7.90;4.27;;;16.60;99.90;;;;;;5002519;28;20014;-72
2022/08/30 02:15:34;;;;;;;6.53;3.63;;;16.60;99.90;;;;;;5003675;28;20141;-72
2022/08/30 02:18:00;;;;;;;9.38;4.95;;;16.60;99.90;;;;;;5002548;28;20116;-72
2022/08/30 02:20:25;;;;;;;7.40;4.72;;;16.60;99.90;;;;;;5002562;28;20089;-72
2022/08/30 02:22:51;;;;;;;12.13;5.33;;;16.60;99.90;;;;;;5003253;28;20030;-72
2022/08/30 02:25:17;;;;;;;7.00;4.27;;;16.50;99.90;;;;;;5002211;28;20026;-72
2022/08/30 02:27:43;;;;;;;8.13;4.23;;;16.50;99.90;;;;;;5003441;28;20026;-72
2022/08/30 02:30:09;;;;;;;7.87;4.87;;;16.50;99.90;;;;;;5003510;28;20022;-72
2022/08/30 02:32:35;;;;;;;10.90;4.65;;;16.50;99.90;;;;;;5002263;28;20026;-72
2022/08/30 02:35:01;;;;;;;7.33;4.70;;;16.40;99.90;;;;;;5003236;28;20368;-72
2022/08/30 02:37:27;;;;;;;9.17;4.70;;;16.40;99.90;;;;;;5003324;28;20038;-72
2022/08/30 02:39:52;;;;;;;9.37;5.33;;;16.40;99.90;;;;;;5001781;28;20038;-72
2022/08/30 02:42:18;;;;;;;9.23;4.13;;;16.40;99.90;;;;;;5003350;28;20073;-72
2022/08/30 02:44:44;;;;;;;7.17;4.47;;;16.40;99.90;;;;;;5003737;28;20037;-72
2022/08/30 02:47:10;;;;;;;11.17;5.10;;;16.40;99.90;;;;;;5003053;28;20220;-72
2022/08/30 02:49:36;;;;;;;9.38;5.38;;;16.40;99.90;;;;;;5002030;28;20046;-73
2022/08/30 02:52:03;;;;;;;8.00;5.07;;;16.40;99.90;;;;;;5003068;28;20041;-73
2022/08/30 02:54:31;;;;;;;9.80;5.15;;;16.40;99.90;;;;;;5001578;28;20018;-72
2022/08/30 02:56:57;;;;;;;9.85;4.93;;;16.40;99.90;;;;;;5002068;28;20030;-72
2022/08/30 02:59:23;;;;;;;10.13;4.90;;;16.40;99.90;;;;;;5001797;28;20366;-71
2022/08/30 03:01:49;;;;;;;10.27;5.40;;;16.40;99.90;;;;;;5001884;28;20038;-73
2022/08/30 03:04:15;;;;;;;10.27;5.00;;;16.40;99.90;;;;;;5001673;28;20026;-73
2022/08/30 03:06:40;;;;;;;7.30;5.20;;;16.40;99.90;;;;;;5001707;28;20030;-73
2022/08/30 03:09:06;;;;;;;9.80;5.10;;;16.40;99.90;;;;;;4994215;28;20048;-73
2022/08/30 03:11:32;;;;;;;8.70;5.30;;;16.40;99.90;;;;;;5001007;28;20030;-72
2022/08/30 03:13:58;;;;;;;6.30;5.00;;;16.30;99.90;;;;;;4985265;28;20065;-72
2022/08/30 03:16:24;;;;;;;7.83;4.83;;;16.30;99.90;;;;;;5002921;28;20321;-72
2022/08/30 03:18:49;;;;;;;6.23;4.80;;;16.30;99.90;;;;;;4996211;28;20384;-71
2022/08/30 03:21:15;;;;;;;10.87;5.20;;;16.30;99.90;;;;;;4998982;28;20229;-72
2022/08/30 03:23:41;;;;;;;9.57;5.33;;;16.30;99.90;;;;;;5002463;28;20053;-72
2022/08/30 03:26:13;;;;;;;10.33;4.90;;;16.20;99.90;;;;;;5002347;28;20049;-72
2022/08/30 03:28:40;;;;;;;12.63;4.57;;;16.20;99.90;;;;;;5001441;28;20026;-72
2022/08/30 03:31:07;;;;;;;11.63;5.50;;;16.20;99.90;;;;;;5002672;28;20314;-72
2022/08/30 03:33:33;;;;;;;8.90;4.97;;;16.10;99.90;;;;;;5004224;28;20034;-72
2022/08/30 03:35:59;;;;;;;12.48;5.90;;;16.20;99.90;;;;;;5008113;28;20037;-72
2022/08/30 03:38:25;;;;;;;6.90;4.87;;;16.10;99.90;;;;;;5008891;28;20085;-72
2022/08/30 03:40:50;;;;;;;8.53;4.87;;;16.00;99.90;;;;;;5008895;28;20018;-72
2022/08/30 03:43:16;;;;;;;10.43;5.53;;;16.00;99.90;;;;;;5008759;28;20033;-72
2022/08/30 03:45:43;;;;;;;7.63;4.90;;;15.90;99.90;;;;;;5008473;28;20367;-72
2022/08/30 03:48:09;;;;;;;;;;;15.90;99.90;;;;;;5009348;28;20383;-72
2022/08/30 03:50:35;;;;;;;8.82;5.45;;;15.90;99.90;;;;;;5008937;28;19913;-72
2022/08/30 03:53:01;;;;;;;12.60;5.57;;;15.80;99.90;;;;;;5008800;28;20022;-72
2022/08/30 03:55:28;;;;;;;9.70;5.67;;;15.80;99.90;;;;;;5008577;28;20049;-72
2022/08/30 03:57:54;;;;;;;8.25;4.72;;;15.80;99.90;;;;;;5007849;28;20033;-72
2022/08/30 04:00:20;;;;;;;13.23;5.10;;;15.70;99.90;;;;;;5008947;28;20213;-72
2022/08/30 04:02:46;;;;;;;10.33;5.20;;;15.70;99.90;;;;;;5007489;28;20108;-72
2022/08/30 04:05:11;;;;;;;8.63;4.87;;;15.60;99.90;;;;;;5008812;28;20221;-72
2022/08/30 04:07:37;;;;;;;9.50;5.37;;;15.60;99.90;;;;;;5008677;28;20225;-72
2022/08/30 04:10:05;;;;;;;9.40;5.10;;;15.60;99.90;;;;;;5008468;28;20018;-72
2022/08/30 04:12:31;;;;;;;9.45;5.13;;;15.60;99.90;;;;;;4991423;28;20022;-72
2022/08/30 04:14:57;;;;;;;7.30;5.20;;;15.50;99.90;;;;;;5008611;28;20088;-72
2022/08/30 04:17:22;;;;;;;8.43;5.43;;;15.50;99.90;;;;;;5007632;28;20045;-72
2022/08/30 04:19:48;;;;;;;13.43;6.57;;;15.50;99.90;;;;;;5007668;28;20045;-72
2022/08/30 04:22:14;;;;;;;14.77;6.03;;;15.50;99.90;;;;;;5008774;28;20030;-72
2022/08/30 04:24:40;;;;;;;10.37;6.13;;;15.50;99.90;;;;;;5007380;28;20054;-71
2022/08/30 04:27:07;;;;;;;10.32;5.20;;;15.50;99.90;;;;;;5007456;28;20285;-72
2022/08/30 04:29:33;;;;;;;;;;;15.40;99.90;;;;;;5007976;28;20042;-73
2022/08/30 04:31:58;;;;;;;10.40;6.05;;;15.40;99.90;;;;;;5008656;28;19912;-72
2022/08/30 04:34:24;;;;;;;9.25;5.28;;;15.40;99.90;;;;;;5008333;28;20042;-72
2022/08/30 04:36:50;;;;;;;11.17;5.87;;;15.40;99.90;;;;;;5007430;28;20071;-72
2022/08/30 04:39:17;;;;;;;8.43;5.20;;;15.30;99.90;;;;;;5007288;28;20321;-72
2022/08/30 04:41:42;;;;;;;12.07;5.68;;;15.30;99.90;;;;;;5007225;28;20045;-72
2022/08/30 04:44:08;;;;;;;7.90;4.87;;;15.30;99.90;;;;;;5008289;28;20297;-72
2022/08/30 04:46:35;;;;;;;9.23;5.23;;;15.20;99.90;;;;;;5004903;28;20264;-72
2022/08/30 04:49:01;;;;;;;8.27;5.63;;;15.20;99.90;;;;;;5004235;28;20313;-72
2022/08/30 04:51:27;;;;;;;9.95;4.72;;;15.20;99.90;;;;;;5005439;28;20088;-72
2022/08/30 04:53:53;;;;;;;11.37;5.17;;;15.20;99.90;;;;;;5004041;28;20022;-72
2022/08/30 04:56:23;;;;;;;12.00;5.68;;;15.20;99.90;;;;;;5005019;28;20221;-72
2022/08/30 04:58:51;;;;;;;9.73;5.30;;;15.10;99.90;;;;;;4988241;28;20057;-72
2022/08/30 05:01:23;;;;;;;10.93;5.22;;;15.20;99.90;;;;;;5003938;28;20038;-72
2022/08/30 05:03:50;;;;;;;8.43;4.78;;;15.10;99.90;;;;;;5005013;28;20026;-72
2022/08/30 05:06:16;;;;;;;8.52;5.80;;;15.10;99.90;;;;;;5003989;28;20045;-73
2022/08/30 05:08:42;;;;;;;9.90;5.47;;;15.10;99.90;;;;;;5003846;28;20317;-72
2022/08/30 05:11:08;;;;;;;12.13;5.70;;;15.10;99.90;;;;;;5003627;28;20307;-72
2022/08/30 05:13:34;;;;;;;16.23;6.30;;;15.10;99.90;;;;;;5003591;28;20025;-72
2022/08/30 05:16:00;;;;;;;11.43;5.20;;;15.00;99.90;;;;;;5003832;28;20037;-72
2022/08/30 05:18:26;;;;;;;8.87;5.40;;;15.00;99.90;;;;;;5003642;28;20348;-72
2022/08/30 05:21:19;;;;;;;10.73;5.80;;;15.00;99.90;;;;;;5003727;28;20026;-72
2022/08/30 05:23:45;;;;;;;10.40;4.57;;;15.00;99.90;;;;;;5004601;28;20030;-72
2022/08/30 05:26:21;;;;;;;12.03;6.17;;;15.00;99.90;;;;;;5004302;28;20207;-72
2022/08/30 05:28:46;;;;;;;13.20;5.78;;;15.10;99.90;;;;;;5003554;28;20046;-72
2022/08/30 05:31:28;;;;;;;8.73;5.50;;;15.10;99.90;;;;;;5004801;28;20034;-72
2022/08/30 05:33:54;;;;;;;9.65;5.78;;;15.20;99.90;;;;;;5003218;28;20229;-72
2022/08/30 05:36:22;;;;;;;13.82;6.45;;;15.20;99.90;;;;;;5003386;28;20038;-72
2022/08/30 05:38:48;;;;;;;7.50;5.30;;;15.30;99.90;;;;;;5003139;28;20084;-72
2022/08/30 05:41:14;;;;;;;14.73;6.18;;;15.30;99.90;;;;;;5003022;28;20058;-72
2022/08/30 05:43:40;;;;;;;11.03;6.30;;;15.30;99.90;;;;;;5003056;28;20225;-68
2022/08/30 05:46:09;;;;;;;11.57;5.32;;;15.40;99.90;;;;;;5004448;28;20046;-68
2022/08/30 05:48:35;;;;;;;8.65;4.95;;;15.40;99.90;;;;;;5004406;28;20264;-68
2022/08/30 05:51:12;;;;;;;8.80;5.47;;;15.50;99.90;;;;;;5003171;28;20019;-68
2022/08/30 05:53:39;;;;;;;8.23;5.20;;;15.50;99.90;;;;;;5004048;28;20191;-67
2022/08/30 05:56:07;;;;;;;15.85;5.55;;;15.60;99.90;;;;;;5002640;28;20257;-68
2022/08/30 05:58:33;;;;;;;11.40;6.47;;;15.60;99.90;;;;;;4999829;28;20089;-68
2022/08/30 06:00:59;;;;;;;9.43;5.40;;;15.60;99.90;;;;;;4998310;28;20027;-68
2022/08/30 06:03:25;;;;;;;11.55;6.75;;;15.60;99.90;;;;;;5003876;28;20325;-68
2022/08/30 06:05:51;;;;;;;12.80;6.32;;;15.70;99.90;;;;;;5002818;28;20022;-68
2022/08/30 06:08:17;;;;;;;9.20;5.57;;;15.80;99.90;;;;;;5002925;28;20269;-68
2022/08/30 06:10:43;;;;;;;7.27;4.90;;;15.80;99.90;;;;;;5003697;28;20027;-68
2022/08/30 06:13:09;;;;;;;9.03;5.47;;;15.80;99.90;;;;;;5003819;28;20022;-68
2022/08/30 06:15:35;;;;;;;8.47;4.83;;;15.90;99.90;;;;;;5003740;28;20022;-67
2022/08/30 06:18:01;;;;;;;7.90;5.10;;;16.00;99.90;;;;;;5002646;28;20030;-67
2022/08/30 06:20:26;;;;;;;9.80;5.37;;;16.00;99.90;;;;;;5003435;28;20037;-68
2022/08/30 06:22:52;;;;;;;10.07;6.33;;;16.10;99.90;;;;;;5003143;28;20030;-67
2022/08/30 06:25:18;;;;;;;9.47;5.47;;;16.20;99.90;;;;;;5002931;28;20026;-68
2022/08/30 06:27:44;;;;;;;10.30;5.20;;;16.20;99.90;;;;;;5018067;28;20028;-67
2022/08/30 06:30:11;;;;;;;14.60;5.73;;;16.30;99.90;;;;;;5003318;28;20072;-70
2022/08/30 06:32:37;;;;;;;11.45;5.70;;;16.30;99.90;;;;;;5003455;28;20022;-70
2022/08/30 06:35:05;;;;;;;8.48;5.65;;;16.40;99.90;;;;;;5002057;28;20034;-70
2022/08/30 06:37:31;;;;;;;14.07;6.72;;;16.50;99.90;;;;;;5003172;28;20274;-71
2022/08/30 06:39:58;;;;;;;11.57;6.53;;;16.50;99.90;;;;;;5002160;28;20034;-70
2022/08/30 06:42:30;;;;;;;12.38;5.82;;;16.60;99.90;;;;;;5003031;28;20026;-70
2022/08/30 06:44:57;;;;;;;11.35;5.50;;;16.70;99.90;;;;;;5002511;28;20022;-71
2022/08/30 06:47:23;;;;;;;;;;;16.70;99.90;;;;;;5003436;28;20037;-71
2022/08/30 06:49:48;;;;;;;9.73;5.30;;;16.80;99.90;;;;;;5002985;28;19906;-71
2022/08/30 06:52:14;;;;;;;11.40;5.13;;;16.90;99.90;;;;;;5002076;28;20093;-71
2022/08/30 06:54:40;;;;;;;8.00;4.47;;;16.90;99.90;;;;;;5002921;28;20030;-70
2022/08/30 06:57:06;;;;;;;8.83;4.50;;;17.00;99.90;;;;;;5001742;28;20022;-70
2022/08/30 06:59:31;;;;;;;8.37;4.90;;;17.10;99.90;;;;;;5003053;28;20018;-71
2022/08/30 07:01:57;;;;;;;9.53;5.47;;;17.20;99.90;;;;;;5003010;28;20225;-71
2022/08/30 07:04:23;;;;;;;9.93;4.60;;;17.20;99.90;;;;;;5002789;28;20356;-71
2022/08/30 07:06:49;;;;;;;10.60;6.00;;;17.30;99.90;;;;;;5001473;28;20329;-70
2022/08/30 07:09:15;;;;;;;14.67;5.40;;;17.40;99.90;;;;;;4990076;28;20022;-71
2022/08/30 07:11:41;;;;;;;9.37;4.93;;;17.50;99.90;;;;;;4993964;28;20234;-70
2022/08/30 07:14:06;;;;;;;11.77;4.90;;;17.50;99.90;;;;;;4989319;28;20085;-70
2022/08/30 07:16:32;;;;;;;13.03;5.30;;;17.60;99.90;;;;;;4987702;28;20286;-70
2022/08/30 07:18:59;;;;;;;11.63;5.18;;;17.70;99.90;;;;;;4982370;28;20026;-70
2022/08/30 07:21:34;;;;;;;8.75;4.70;;;17.70;99.90;;;;;;4983533;28;20122;-70
2022/08/30 07:24:00;;;;;;;9.07;4.93;;;17.80;99.90;;;;;;4983177;28;20031;-70
2022/08/30 07:26:38;;;;;;;10.67;6.20;;;17.90;99.90;;;;;;4983020;28;20033;-71
2022/08/30 07:29:04;;;;;;;9.77;5.32;;;17.90;99.90;;;;;;4982510;28;20018;-70
2022/08/30 07:31:30;;;;;;;14.13;5.83;;;18.00;99.90;;;;;;4983378;28;20033;-70
2022/08/30 07:33:55;;;;;;;12.20;5.10;;;18.10;99.90;;;;;;4982970;28;20045;-70
2022/08/30 07:36:22;;;;;;;9.13;4.70;;;18.10;99.90;;;;;;4983202;28;20089;-70
2022/08/30 07:38:49;;;;;;;;;;;18.20;99.90;;;;;;4983508;28;20031;-71
2022/08/30 07:41:17;;;;;;;9.55;5.25;;;18.30;99.90;;;;;;4994002;28;19905;-69
2022/08/30 07:43:43;;;;;;;7.65;4.53;;;18.30;99.90;;;;;;5002456;28;20030;-69
2022/08/30 07:46:09;;;;;;;7.47;4.27;;;18.40;99.90;;;;;;5002475;28;20033;-74
2022/08/30 07:48:35;;;;;;;8.60;5.60;;;18.50;99.90;;;;;;5002422;28;20029;-73
2022/08/30 07:51:01;;;;;;;11.13;4.80;;;18.60;99.90;;;;;;5001456;28;20318;-74
2022/08/30 07:53:27;;;;;;;7.10;4.67;;;18.60;99.90;;;;;;5001324;28;20041;-73
2022/08/30 07:55:52;;;;;;;10.27;4.77;;;18.70;99.90;;;;;;5001199;28;20034;-75
2022/08/30 07:58:18;;;;;;;8.13;5.37;;;18.80;99.90;;;;;;5000381;28;20058;-73
2022/08/30 08:00:44;;;;;;;10.17;4.73;;;18.90;99.90;;;;;;4993557;28;20050;-74
2022/08/30 08:03:10;;;;;;;7.67;4.40;;;19.00;99.90;;;;;;5001139;28;20022;-74
2022/08/30 08:05:40;;;;;;;9.33;4.83;;;19.10;99.90;;;;;;5002280;28;20030;-74
2022/08/30 08:08:06;;;;;;;8.60;4.95;;;19.20;99.90;;;;;;5001228;28;20260;-73
2022/08/30 08:10:32;;;;;;;8.20;5.07;;;19.30;99.90;;;;;;5002269;28;20030;-74
2022/08/30 08:12:59;;;;;;;7.25;3.92;;;19.40;99.90;;;;;;5002134;28;20026;-74
2022/08/30 08:15:25;;;;;;;7.65;4.25;;;19.40;99.90;;;;;;5002693;28;20089;-74
2022/08/30 08:17:51;;;;;;;7.28;4.60;;;19.50;99.90;;;;;;5000236;28;20069;-74
2022/08/30 08:20:16;;;;;;;9.70;4.53;;;19.50;99.90;;;;;;4995739;28;20260;-74
2022/08/30 08:22:42;;;;;;;10.87;5.10;;;19.60;99.90;;;;;;5006003;28;20057;-75
2022/08/30 08:25:08;;;;;;;11.10;4.23;;;19.60;99.90;;;;;;5006005;28;20030;-74
2022/08/30 08:27:34;;;;;;;8.03;4.43;;;19.70;99.90;;;;;;5005704;28;20142;-75
2022/08/30 08:29:59;;;;;;;10.23;4.73;;;19.80;99.90;;;;;;5005986;28;20081;-74
2022/08/30 08:32:25;;;;;;;7.57;5.13;;;19.90;99.90;;;;;;5005848;28;20022;-74
2022/08/30 08:34:51;;;;;;;7.80;5.07;;;20.00;99.90;;;;;;5005631;28;20026;-75
2022/08/30 08:37:17;;;;;;;11.80;5.27;;;20.10;99.90;;;;;;5005643;28;20042;-74
2022/08/30 08:39:43;;;;;;;9.05;4.90;;;20.20;99.90;;;;;;5005963;28;20076;-75
2022/08/30 08:42:23;;;;;;;10.87;5.17;;;20.30;99.90;;;;;;4978012;28;20039;-75
2022/08/30 08:45:04;;;;;;;8.48;4.90;;;20.40;99.90;;;;;;4987714;28;20050;-75
2022/08/30 08:48:03;;;;;;;9.90;5.13;;;20.50;99.90;;;;;;4993853;28;20030;-75
2022/08/30 08:50:29;;;;;;;8.23;4.63;;;20.60;99.90;;;;;;4985438;28;20023;-75
2022/08/30 08:53:35;;;;;;;11.33;5.10;;;20.70;99.90;;;;;;4986084;28;20392;-75
2022/08/30 08:56:11;;;;;;;8.98;5.18;;;20.90;99.90;;;;;;4988154;28;20037;-74
2022/08/30 08:58:44;;;;;;;7.82;4.60;;;21.00;99.90;;;;;;4985469;28;20093;-75
2022/08/30 09:01:11;;;;;;;8.63;5.07;;;21.20;99.90;;;;;;4985175;28;20068;-75
2022/08/30 09:03:38;;;;;;;8.90;5.43;;;21.30;99.90;;;;;;4985627;28;20111;-75
2022/08/30 09:06:10;;;;;;;;;;;21.30;99.90;;;;;;4969053;28;20110;-75
2022/08/30 09:08:36;;;;;;;8.55;5.15;;;21.50;99.90;;;;;;4984699;28;19906;-75
2022/08/30 09:11:05;;;;;;;10.20;5.40;;;21.60;99.90;;;;;;4986990;28;20225;-76
2022/08/30 09:13:31;;;;;;;13.48;5.00;;;21.70;99.90;;;;;;4987650;28;20116;-75
2022/08/30 09:15:57;;;;;;;9.57;4.93;;;21.80;99.90;;;;;;5004977;28;20033;-75
2022/08/30 09:18:44;;;;;;;10.10;5.00;;;21.90;99.90;;;;;;4987447;28;20249;-75
2022/08/30 09:21:10;;;;;;;6.25;4.57;;;21.90;99.90;;;;;;5003872;28;20194;-76
2022/08/30 09:23:36;;;;;;;7.10;4.53;;;22.00;99.90;;;;;;5003449;28;20040;-75
2022/08/30 09:26:05;;;;;;;12.73;5.05;;;22.00;99.90;;;;;;4987088;28;20038;-75
2022/08/30 09:28:47;;;;;;;6.53;4.53;;;22.10;99.90;;;;;;5003542;28;20030;-75
2022/08/30 09:31:23;;;;;;;7.15;4.45;;;22.20;99.90;;;;;;5002803;28;20037;-75
2022/08/30 09:34:08;;;;;;;8.73;4.57;;;22.20;99.90;;;;;;5003510;28;20014;-76
2022/08/30 09:36:42;;;;;;;8.93;4.63;;;22.30;99.90;;;;;;5003542;28;20376;-75
2022/08/30 09:39:34;;;;;;;7.68;4.25;;;22.50;99.90;;;;;;5004321;28;20034;-75
2022/08/30 09:42:18;;;;;;;9.45;4.72;;;22.50;99.90;;;;;;5003155;28;20018;-75
2022/08/30 09:44:44;;;;;;;8.35;4.40;;;22.60;99.90;;;;;;5002504;28;20210;-75
2022/08/30 09:47:27;;;;;;;6.87;4.07;;;22.70;99.90;;;;;;5003075;28;20162;-75
2022/08/30 09:50:19;;;;;;;12.10;4.35;;;22.80;99.90;;;;;;5003347;28;20025;-75
2022/08/30 09:53:17;;;;;;;9.10;4.65;;;22.80;99.90;;;;;;5003041;28;20030;-75
2022/08/30 09:56:05;;;;;;;8.20;3.85;;;22.90;99.90;;;;;;5002991;28;20018;-75
2022/08/30 09:58:34;;;;;;;;;;;23.00;99.90;;;;;;4999976;28;20085;-75
2022/08/30 10:01:15;;;;;;;9.85;4.30;;;23.10;99.90;;;;;;4998155;28;19905;-75
2022/08/30 10:04:15;;;;;;;7.50;3.90;;;23.20;99.90;;;;;;4987365;28;20054;-75
2022/08/30 10:07:26;;;;;;;8.32;4.32;;;23.20;99.90;;;;;;5002792;28;20177;-75
2022/08/30 10:09:59;;;;;;;5.75;3.47;;;23.30;99.90;;;;;;5002885;28;20556;-75
2022/08/30 10:12:50;;;;;;;9.23;3.75;;;23.40;99.90;;;;;;4986739;28;20261;-75
2022/08/30 10:15:27;;;;;;;8.15;4.45;;;23.40;99.90;;;;;;5002824;28;20318;-75
2022/08/30 10:18:03;;;;;;;12.45;4.05;;;23.50;99.90;;;;;;5002725;28;20034;-75
2022/08/30 10:20:54;;;;;;;8.50;3.60;;;23.60;99.90;;;;;;5002718;28;20121;-76
2022/08/30 10:23:32;;;;;;;6.47;3.58;;;23.70;99.90;;;;;;5002325;28;20229;-75
2022/08/30 10:26:30;;;;;;;6.50;3.35;;;23.80;99.90;;;;;;5002148;28;20097;-75
2022/08/30 10:29:24;;;;;;;6.55;3.80;;;23.90;99.90;;;;;;4983077;28;20034;-75
2022/08/30 10:32:23;;;;;;;9.30;4.40;;;24.00;99.90;;;;;;5002462;28;20202;-75
2022/08/30 10:34:56;;;;;;;7.03;3.70;;;24.10;99.90;;;;;;5002218;28;20030;-75
2022/08/30 10:37:28;;;;;;;9.60;3.53;;;24.20;99.90;;;;;;5002276;28;20034;-76
2022/08/30 10:43:23;;;;;;;9.88;3.28;;;24.40;99.90;;;;;;5000987;28;20044;-75
2022/08/30 10:45:50;;;;;;;5.07;3.10;;;24.50;98.50;;;;;;5001964;28;20022;-75
2022/08/30 10:48:20;;;;;;;;;;;24.70;99.10;;;;;;5002448;28;20026;-75
2022/08/30 10:50:50;;;;;;;7.68;3.20;;;24.90;99.20;;;;;;5018292;28;19941;-76
2022/08/30 10:53:29;;;;;;;7.47;3.30;;;25.00;98.50;;;;;;4985762;28;20022;-75
2022/08/30 10:56:07;;;;;;;8.13;3.90;;;25.20;98.70;;;;;;5001916;28;20229;-75
2022/08/30 10:58:34;;;;;;;7.30;3.10;;;25.30;97.90;;;;;;4997968;28;20302;-76
2022/08/30 11:01:12;;;;;;;6.38;2.95;;;25.50;90.40;;;;;;4980069;28;20221;-75
2022/08/30 11:04:11;;;;;;;6.90;3.20;;;25.60;90.80;;;;;;4985483;28;20061;-75
2022/08/30 11:07:10;;;;;;;4.28;2.78;;;25.70;87.80;;;;;;5002861;28;20093;-75
2022/08/30 11:09:57;;;;;;;;;;;25.80;90.50;;;;;;5001292;28;20085;-76
2022/08/30 11:12:51;;;;;;;6.20;2.50;;;25.90;91.00;;;;;;5002576;28;19914;-75
2022/08/30 11:15:26;;;;;;;5.00;2.83;;;26.10;90.30;;;;;;5001742;28;20072;-75
2022/08/30 11:18:12;;;;;;;4.95;3.20;;;26.20;90.10;;;;;;5001716;28;20029;-76
2022/08/30 11:20:50;;;;;;;5.03;3.00;;;26.40;90.90;;;;;;4986764;28;20053;-75
2022/08/30 11:23:33;;;;;;;5.75;3.00;;;26.60;87.90;;;;;;5001337;28;20037;-76
2022/08/30 11:26:07;;;;;;;4.57;2.70;;;26.80;79.20;;;;;;4984940;28;20041;-76
2022/08/30 11:28:36;;;;;;;5.68;3.17;;;27.00;79.40;;;;;;5001440;28;20026;-76
2022/08/30 11:31:06;;;;;;;5.55;2.75;;;27.20;79.10;;;;;;5002634;28;20053;-76
2022/08/30 11:33:50;;;;;;;5.40;2.78;;;27.30;74.90;;;;;;5001276;28;20046;-76
2022/08/30 11:36:31;;;;;;;5.65;2.95;;;27.50;77.80;;;;;;4985146;28;20093;-76
2022/08/30 11:39:47;;;;;;;6.72;2.92;;;27.70;77.50;;;;;;5002499;28;20033;-76
2022/08/30 11:42:51;;;;;;;5.80;2.83;;;28.00;75.30;;;;;;5001060;28;20018;-76
2022/08/30 11:45:23;;;;;;;4.57;2.55;;;28.20;72.50;;;;;;5001538;28;20056;-76
2022/08/30 11:48:00;;;;;;;6.65;3.22;;;28.40;72.30;;;;;;5002527;28;20069;-76
2022/08/30 11:50:51;;;;;;;5.70;3.20;;;28.70;72.30;;;;;;5001511;28;20029;-76
2022/08/30 11:53:46;;;;;;;5.07;2.95;;;28.90;68.10;;;;;;5001176;28;20034;-76
2022/08/30 11:56:25;;;;;;;4.78;2.70;;;29.20;66.60;;;;;;5004345;28;20325;-76
2022/08/30 11:58:56;;;;;;;4.38;2.97;;;29.40;61.70;;;;;;5005301;28;20022;-76
2022/08/30 12:01:24;;;;;;;6.57;3.17;;;29.60;65.90;;;;;;5005198;28;20086;-76
2022/08/30 12:04:10;;;;;;;3.10;2.58;;;29.80;65.10;;;;;;5006087;28;20019;-76
2022/08/30 12:06:39;;;;;;;5.53;2.95;;;30.00;58.60;;;;;;4988785;28;20093;-76
2022/08/30 12:09:23;;;;;;;4.60;2.75;;;30.30;61.10;;;;;;5006135;28;20022;-76
2022/08/30 12:12:04;;;;;;;4.75;3.10;;;30.60;56.40;;;;;;5005871;28;20030;-76
2022/08/30 12:14:50;;;;;;;7.18;3.22;;;30.90;56.40;;;;;;5004679;28;20026;-76
2022/08/30 12:20:37;;;;;;;8.65;3.28;;;31.60;54.60;;;;;;4992631;28;20041;-76
2022/08/30 12:23:45;;;;;;;4.88;2.47;;;32.20;52.30;;;;;;4986165;28;20322;-77
2022/08/30 12:26:23;;;;;;;5.68;3.00;;;33.10;49.30;;;;;;4925780;29;20212;-76
2022/08/30 12:28:50;;;;;;;3.67;2.72;;;33.50;48.80;;;;;;4981884;28;20360;-76
2022/08/30 12:31:23;;;;;;;3.83;2.92;;;34.00;41.80;;;;;;4985263;28;20022;-77
2022/08/30 12:33:53;;;;;;;4.25;2.58;;;34.10;43.20;;;;;;4984883;28;20094;-75
2022/08/30 12:36:37;;;;;;;4.28;2.70;;;34.30;41.80;;;;;;4985479;28;20027;-74
2022/08/30 12:39:18;;;;;;;4.00;2.42;;;34.30;46.70;;;;;;4986066;28;20085;-74
2022/08/30 12:41:44;;;;;;;2.97;2.28;;;34.60;46.40;;;;;;4984916;28;20090;-75
2022/08/30 12:44:23;;;;;;;5.55;2.42;;;35.20;45.70;;;;;;4984378;28;20023;-74
2022/08/30 12:46:56;;;;;;;4.32;2.58;;;36.10;41.20;;;;;;4970001;28;20033;-75
2022/08/30 12:49:24;;;;;;;4.32;2.70;;;37.10;39.30;;;;;;4984871;28;20098;-76
2022/08/30 12:51:50;;;;;;;4.32;2.90;;;38.10;39.80;;;;;;4968937;28;20022;-76
2022/08/30 12:54:29;;;;;;;5.15;3.00;;;39.30;36.80;;;;;;4984330;28;20026;-75
2022/08/30 12:57:01;;;;;;;3.75;2.65;;;40.10;34.00;;;;;;4968940;28;20318;-76
2022/08/30 12:59:59;;;;;;;4.65;2.72;;;40.40;34.00;;;;;;4984699;28;20285;-77
2022/08/30 13:02:52;;;;;;;5.43;3.05;;;41.00;32.90;;;;;;4968779;28;20097;-76
2022/08/30 13:05:55;;;;;;;4.15;2.60;;;41.60;31.10;;;;;;4985665;28;20093;-77
2022/08/30 13:08:40;;;;;;;5.45;2.75;;;42.60;31.60;;;;;;4967801;28;20395;-78
2022/08/30 13:11:31;;;;;;;4.90;2.95;;;43.50;29.40;;;;;;4971916;28;20022;-78
2022/08/30 13:14:23;;;;;;;5.25;2.67;;;44.20;29.90;;;;;;4990011;28;20030;-78